sensor_id;sensor_type;location;lat;lon;timestamp;temperature;humidity
75719;DHT22;64340;48.534;-3.036;2022-10-31T00:02:06;19.10;74.20
75719;DHT22;64340;48.534;-3.036;2022-10-31T00:04:32;19.10;74.20
75719;DHT22;64340;48.534;-3.036;2022-10-31T00:06:57;19.10;74.20
75719;DHT22;64340;48.534;-3.036;2022-10-31T00:09:23;19.10;74.20
75719;DHT22;64340;48.534;-3.036;2022-10-31T00:11:49;19.10;74.20
75719;DHT22;64340;48.534;-3.036;2022-10-31T00:14:14;19.10;74.10
75719;DHT22;64340;48.534;-3.036;2022-10-31T00:16:40;19.10;74.20
75719;DHT22;64340;48.534;-3.036;2022-10-31T00:19:07;19.10;74.20
75719;DHT22;64340;48.534;-3.036;2022-10-31T00:21:34;19.10;74.00
75719;DHT22;64340;48.534;-3.036;2022-10-31T00:24:01;19.10;74.10
75719;DHT22;64340;48.534;-3.036;2022-10-31T00:26:28;19.10;74.00
75719;DHT22;64340;48.534;-3.036;2022-10-31T00:28:54;19.10;74.10
75719;DHT22;64340;48.534;-3.036;2022-10-31T00:31:19;19.10;74.00
75719;DHT22;64340;48.534;-3.036;2022-10-31T00:33:46;19.10;74.10
75719;DHT22;64340;48.534;-3.036;2022-10-31T00:36:14;19.10;73.90
75719;DHT22;64340;48.534;-3.036;2022-10-31T00:38:41;19.10;73.90
75719;DHT22;64340;48.534;-3.036;2022-10-31T00:41:07;19.10;74.00
75719;DHT22;64340;48.534;-3.036;2022-10-31T00:43:33;19.10;73.90
75719;DHT22;64340;48.534;-3.036;2022-10-31T00:45:59;19.10;73.90
75719;DHT22;64340;48.534;-3.036;2022-10-31T00:48:24;19.10;73.90
75719;DHT22;64340;48.534;-3.036;2022-10-31T00:50:50;19.00;73.90
75719;DHT22;64340;48.534;-3.036;2022-10-31T00:53:16;19.00;74.00
75719;DHT22;64340;48.534;-3.036;2022-10-31T00:55:42;19.00;73.90
75719;DHT22;64340;48.534;-3.036;2022-10-31T00:58:07;19.00;73.90
75719;DHT22;64340;48.534;-3.036;2022-10-31T01:00:33;19.00;73.90
75719;DHT22;64340;48.534;-3.036;2022-10-31T01:02:59;19.00;73.90
75719;DHT22;64340;48.534;-3.036;2022-10-31T01:05:25;19.00;73.90
75719;DHT22;64340;48.534;-3.036;2022-10-31T01:07:50;19.00;74.00
75719;DHT22;64340;48.534;-3.036;2022-10-31T01:10:16;19.00;74.00
75719;DHT22;64340;48.534;-3.036;2022-10-31T01:12:47;19.00;73.90
75719;DHT22;64340;48.534;-3.036;2022-10-31T01:15:22;19.00;74.00
75719;DHT22;64340;48.534;-3.036;2022-10-31T01:17:48;19.00;74.00
75719;DHT22;64340;48.534;-3.036;2022-10-31T01:20:15;19.00;74.00
75719;DHT22;64340;48.534;-3.036;2022-10-31T01:22:41;19.00;74.00
75719;DHT22;64340;48.534;-3.036;2022-10-31T01:25:08;19.00;74.00
75719;DHT22;64340;48.534;-3.036;2022-10-31T01:27:34;19.00;73.90
75719;DHT22;64340;48.534;-3.036;2022-10-31T01:30:00;19.00;74.00
75719;DHT22;64340;48.534;-3.036;2022-10-31T01:32:26;18.90;74.00
75719;DHT22;64340;48.534;-3.036;2022-10-31T01:34:54;19.00;74.00
75719;DHT22;64340;48.534;-3.036;2022-10-31T01:37:20;19.00;74.00
75719;DHT22;64340;48.534;-3.036;2022-10-31T01:39:48;18.90;74.10
75719;DHT22;64340;48.534;-3.036;2022-10-31T01:42:19;19.00;74.00
75719;DHT22;64340;48.534;-3.036;2022-10-31T01:44:53;19.00;74.00
75719;DHT22;64340;48.534;-3.036;2022-10-31T01:47:25;18.90;74.00
75719;DHT22;64340;48.534;-3.036;2022-10-31T01:49:56;18.90;74.00
75719;DHT22;64340;48.534;-3.036;2022-10-31T01:55:44;18.90;74.20
75719;DHT22;64340;48.534;-3.036;2022-10-31T01:58:16;18.90;74.20
75719;DHT22;64340;48.534;-3.036;2022-10-31T02:00:48;18.90;74.20
75719;DHT22;64340;48.534;-3.036;2022-10-31T02:03:16;18.90;74.30
75719;DHT22;64340;48.534;-3.036;2022-10-31T02:05:42;18.90;74.30
75719;DHT22;64340;48.534;-3.036;2022-10-31T02:08:29;18.90;74.30
75719;DHT22;64340;48.534;-3.036;2022-10-31T02:10:57;18.90;74.30
75719;DHT22;64340;48.534;-3.036;2022-10-31T02:13:23;18.90;74.30
75719;DHT22;64340;48.534;-3.036;2022-10-31T02:15:54;18.90;74.30
75719;DHT22;64340;48.534;-3.036;2022-10-31T02:18:20;18.90;74.30
75719;DHT22;64340;48.534;-3.036;2022-10-31T02:29:13;18.90;74.20
75719;DHT22;64340;48.534;-3.036;2022-10-31T02:34:24;18.90;74.30
75719;DHT22;64340;48.534;-3.036;2022-10-31T02:39:33;18.80;74.20
75719;DHT22;64340;48.534;-3.036;2022-10-31T02:42:14;18.80;74.20
75719;DHT22;64340;48.534;-3.036;2022-10-31T02:44:51;18.80;74.10
75719;DHT22;64340;48.534;-3.036;2022-10-31T02:47:26;18.80;74.10
75719;DHT22;64340;48.534;-3.036;2022-10-31T02:50:14;18.80;74.10
75719;DHT22;64340;48.534;-3.036;2022-10-31T02:52:40;18.80;74.10
75719;DHT22;64340;48.534;-3.036;2022-10-31T02:58:10;18.80;74.10
75719;DHT22;64340;48.534;-3.036;2022-10-31T03:03:41;18.80;74.00
75719;DHT22;64340;48.534;-3.036;2022-10-31T03:06:49;18.80;74.10
75719;DHT22;64340;48.534;-3.036;2022-10-31T03:09:33;18.80;74.00
75719;DHT22;64340;48.534;-3.036;2022-10-31T03:12:13;18.80;74.10
75719;DHT22;64340;48.534;-3.036;2022-10-31T03:14:41;18.80;74.00
75719;DHT22;64340;48.534;-3.036;2022-10-31T03:17:14;18.70;74.00
75719;DHT22;64340;48.534;-3.036;2022-10-31T03:19:45;18.70;73.90
75719;DHT22;64340;48.534;-3.036;2022-10-31T03:22:25;18.80;74.00
75719;DHT22;64340;48.534;-3.036;2022-10-31T03:24:52;18.70;74.00
75719;DHT22;64340;48.534;-3.036;2022-10-31T03:27:25;18.70;74.00
75719;DHT22;64340;48.534;-3.036;2022-10-31T03:29:55;18.70;74.00
75719;DHT22;64340;48.534;-3.036;2022-10-31T03:32:41;18.70;74.00
75719;DHT22;64340;48.534;-3.036;2022-10-31T03:35:08;18.70;74.00
75719;DHT22;64340;48.534;-3.036;2022-10-31T03:37:36;18.70;74.00
75719;DHT22;64340;48.534;-3.036;2022-10-31T03:40:04;18.70;74.00
75719;DHT22;64340;48.534;-3.036;2022-10-31T03:42:33;18.70;74.00
75719;DHT22;64340;48.534;-3.036;2022-10-31T03:45:12;18.70;74.00
75719;DHT22;64340;48.534;-3.036;2022-10-31T03:47:39;18.70;74.00
75719;DHT22;64340;48.534;-3.036;2022-10-31T03:50:07;18.70;74.00
75719;DHT22;64340;48.534;-3.036;2022-10-31T03:52:58;18.70;73.90
75719;DHT22;64340;48.534;-3.036;2022-10-31T03:55:56;18.70;74.00
75719;DHT22;64340;48.534;-3.036;2022-10-31T03:58:37;18.70;74.00
75719;DHT22;64340;48.534;-3.036;2022-10-31T04:01:07;18.70;74.00
75719;DHT22;64340;48.534;-3.036;2022-10-31T04:03:36;18.70;73.90
75719;DHT22;64340;48.534;-3.036;2022-10-31T04:06:06;18.70;74.00
75719;DHT22;64340;48.534;-3.036;2022-10-31T04:08:39;18.60;74.00
75719;DHT22;64340;48.534;-3.036;2022-10-31T04:11:08;18.60;74.00
75719;DHT22;64340;48.534;-3.036;2022-10-31T04:13:37;18.60;74.00
75719;DHT22;64340;48.534;-3.036;2022-10-31T04:16:04;18.60;74.00
75719;DHT22;64340;48.534;-3.036;2022-10-31T04:18:30;18.70;74.00
75719;DHT22;64340;48.534;-3.036;2022-10-31T04:21:05;18.60;74.00
75719;DHT22;64340;48.534;-3.036;2022-10-31T04:23:31;18.60;74.00
75719;DHT22;64340;48.534;-3.036;2022-10-31T04:25:57;18.60;74.00
75719;DHT22;64340;48.534;-3.036;2022-10-31T04:28:23;18.60;74.00
75719;DHT22;64340;48.534;-3.036;2022-10-31T04:30:49;18.60;74.10
75719;DHT22;64340;48.534;-3.036;2022-10-31T04:33:15;18.60;74.10
75719;DHT22;64340;48.534;-3.036;2022-10-31T04:35:41;18.60;74.10
75719;DHT22;64340;48.534;-3.036;2022-10-31T04:38:06;18.60;74.10
75719;DHT22;64340;48.534;-3.036;2022-10-31T04:40:32;18.60;74.10
75719;DHT22;64340;48.534;-3.036;2022-10-31T04:42:58;18.60;74.10
75719;DHT22;64340;48.534;-3.036;2022-10-31T04:45:23;18.60;74.20
75719;DHT22;64340;48.534;-3.036;2022-10-31T04:47:49;18.60;74.20
75719;DHT22;64340;48.534;-3.036;2022-10-31T04:50:16;18.60;74.20
75719;DHT22;64340;48.534;-3.036;2022-10-31T04:52:42;18.60;74.20
75719;DHT22;64340;48.534;-3.036;2022-10-31T04:55:10;18.60;74.20
75719;DHT22;64340;48.534;-3.036;2022-10-31T04:57:47;18.50;74.10
75719;DHT22;64340;48.534;-3.036;2022-10-31T05:00:15;18.50;74.20
75719;DHT22;64340;48.534;-3.036;2022-10-31T05:02:48;18.50;74.20
75719;DHT22;64340;48.534;-3.036;2022-10-31T05:05:15;18.50;74.10
75719;DHT22;64340;48.534;-3.036;2022-10-31T05:07:42;18.50;74.20
75719;DHT22;64340;48.534;-3.036;2022-10-31T05:10:10;18.50;74.10
75719;DHT22;64340;48.534;-3.036;2022-10-31T05:12:37;18.50;74.10
75719;DHT22;64340;48.534;-3.036;2022-10-31T05:15:04;18.50;74.10
75719;DHT22;64340;48.534;-3.036;2022-10-31T05:17:31;18.50;74.20
75719;DHT22;64340;48.534;-3.036;2022-10-31T05:19:57;18.50;74.20
75719;DHT22;64340;48.534;-3.036;2022-10-31T05:22:23;18.50;74.20
75719;DHT22;64340;48.534;-3.036;2022-10-31T05:24:48;18.50;74.10
75719;DHT22;64340;48.534;-3.036;2022-10-31T05:27:14;18.50;74.10
75719;DHT22;64340;48.534;-3.036;2022-10-31T05:29:40;18.50;74.10
75719;DHT22;64340;48.534;-3.036;2022-10-31T05:32:06;18.50;74.30
75719;DHT22;64340;48.534;-3.036;2022-10-31T05:34:31;18.50;74.50
75719;DHT22;64340;48.534;-3.036;2022-10-31T05:36:57;18.50;74.70
75719;DHT22;64340;48.534;-3.036;2022-10-31T05:39:23;18.50;74.90
75719;DHT22;64340;48.534;-3.036;2022-10-31T05:41:49;18.50;75.00
75719;DHT22;64340;48.534;-3.036;2022-10-31T05:44:14;18.50;75.20
75719;DHT22;64340;48.534;-3.036;2022-10-31T05:46:41;18.50;75.30
75719;DHT22;64340;48.534;-3.036;2022-10-31T05:49:07;18.50;75.30
75719;DHT22;64340;48.534;-3.036;2022-10-31T05:51:33;18.50;75.40
75719;DHT22;64340;48.534;-3.036;2022-10-31T05:53:59;18.50;75.50
75719;DHT22;64340;48.534;-3.036;2022-10-31T05:56:24;18.50;75.50
75719;DHT22;64340;48.534;-3.036;2022-10-31T05:58:50;18.50;75.50
75719;DHT22;64340;48.534;-3.036;2022-10-31T06:01:16;18.50;75.40
75719;DHT22;64340;48.534;-3.036;2022-10-31T06:03:41;18.50;75.50
75719;DHT22;64340;48.534;-3.036;2022-10-31T06:06:07;18.50;75.50
75719;DHT22;64340;48.534;-3.036;2022-10-31T06:08:36;18.50;75.50
75719;DHT22;64340;48.534;-3.036;2022-10-31T06:11:02;18.40;75.60
75719;DHT22;64340;48.534;-3.036;2022-10-31T06:13:28;18.40;75.60
75719;DHT22;64340;48.534;-3.036;2022-10-31T06:15:53;18.50;75.50
75719;DHT22;64340;48.534;-3.036;2022-10-31T06:18:19;18.40;75.60
75719;DHT22;64340;48.534;-3.036;2022-10-31T06:20:45;18.40;75.50
75719;DHT22;64340;48.534;-3.036;2022-10-31T06:23:11;18.40;75.50
75719;DHT22;64340;48.534;-3.036;2022-10-31T06:25:36;18.40;75.50
75719;DHT22;64340;48.534;-3.036;2022-10-31T06:28:02;18.40;75.50
75719;DHT22;64340;48.534;-3.036;2022-10-31T06:30:28;18.40;75.50
75719;DHT22;64340;48.534;-3.036;2022-10-31T06:32:54;18.40;75.50
75719;DHT22;64340;48.534;-3.036;2022-10-31T06:35:20;18.40;75.50
75719;DHT22;64340;48.534;-3.036;2022-10-31T06:37:53;18.40;75.50
75719;DHT22;64340;48.534;-3.036;2022-10-31T06:40:19;18.40;75.50
75719;DHT22;64340;48.534;-3.036;2022-10-31T06:42:45;18.40;75.30
75719;DHT22;64340;48.534;-3.036;2022-10-31T06:45:10;18.40;75.30
75719;DHT22;64340;48.534;-3.036;2022-10-31T06:47:36;18.40;74.80
75719;DHT22;64340;48.534;-3.036;2022-10-31T06:50:02;18.40;74.30
75719;DHT22;64340;48.534;-3.036;2022-10-31T06:52:28;18.40;74.20
75719;DHT22;64340;48.534;-3.036;2022-10-31T06:54:54;18.40;74.00
75719;DHT22;64340;48.534;-3.036;2022-10-31T06:57:19;18.40;74.00
75719;DHT22;64340;48.534;-3.036;2022-10-31T06:59:45;18.40;73.60
75719;DHT22;64340;48.534;-3.036;2022-10-31T07:02:11;18.30;73.00
75719;DHT22;64340;48.534;-3.036;2022-10-31T07:04:37;18.30;72.40
75719;DHT22;64340;48.534;-3.036;2022-10-31T07:07:03;18.30;72.50
75719;DHT22;64340;48.534;-3.036;2022-10-31T07:09:29;18.30;72.30
75719;DHT22;64340;48.534;-3.036;2022-10-31T07:11:55;18.30;72.00
75719;DHT22;64340;48.534;-3.036;2022-10-31T07:14:20;18.30;71.80
75719;DHT22;64340;48.534;-3.036;2022-10-31T07:16:50;18.30;71.80
75719;DHT22;64340;48.534;-3.036;2022-10-31T07:19:16;18.30;72.10
75719;DHT22;64340;48.534;-3.036;2022-10-31T07:21:42;18.30;72.40
75719;DHT22;64340;48.534;-3.036;2022-10-31T07:24:08;18.30;72.50
75719;DHT22;64340;48.534;-3.036;2022-10-31T07:26:34;18.30;72.60
75719;DHT22;64340;48.534;-3.036;2022-10-31T07:29:00;18.30;72.70
75719;DHT22;64340;48.534;-3.036;2022-10-31T07:31:26;18.30;72.70
75719;DHT22;64340;48.534;-3.036;2022-10-31T07:33:52;18.30;72.80
75719;DHT22;64340;48.534;-3.036;2022-10-31T07:36:18;18.30;72.80
75719;DHT22;64340;48.534;-3.036;2022-10-31T07:38:44;18.30;72.90
75719;DHT22;64340;48.534;-3.036;2022-10-31T07:41:10;18.30;72.80
75719;DHT22;64340;48.534;-3.036;2022-10-31T07:43:35;18.30;72.90
75719;DHT22;64340;48.534;-3.036;2022-10-31T07:46:01;18.30;72.90
75719;DHT22;64340;48.534;-3.036;2022-10-31T07:48:27;18.30;72.80
75719;DHT22;64340;48.534;-3.036;2022-10-31T07:50:54;18.20;72.80
75719;DHT22;64340;48.534;-3.036;2022-10-31T07:53:20;18.20;72.80
75719;DHT22;64340;48.534;-3.036;2022-10-31T07:55:46;18.20;72.90
75719;DHT22;64340;48.534;-3.036;2022-10-31T07:58:14;18.20;72.90
75719;DHT22;64340;48.534;-3.036;2022-10-31T08:00:42;18.20;73.00
75719;DHT22;64340;48.534;-3.036;2022-10-31T08:03:10;18.20;73.00
75719;DHT22;64340;48.534;-3.036;2022-10-31T08:05:37;18.20;73.00
75719;DHT22;64340;48.534;-3.036;2022-10-31T08:08:04;18.20;73.10
75719;DHT22;64340;48.534;-3.036;2022-10-31T08:10:31;18.20;73.20
75719;DHT22;64340;48.534;-3.036;2022-10-31T08:13:06;18.30;73.30
75719;DHT22;64340;48.534;-3.036;2022-10-31T08:15:32;18.30;73.40
75719;DHT22;64340;48.534;-3.036;2022-10-31T08:17:59;18.20;73.50
75719;DHT22;64340;48.534;-3.036;2022-10-31T08:20:25;18.30;73.70
75719;DHT22;64340;48.534;-3.036;2022-10-31T08:22:59;18.30;73.90
75719;DHT22;64340;48.534;-3.036;2022-10-31T08:25:26;18.30;74.10
75719;DHT22;64340;48.534;-3.036;2022-10-31T08:27:55;18.30;74.20
75719;DHT22;64340;48.534;-3.036;2022-10-31T08:30:23;18.30;74.20
75719;DHT22;64340;48.534;-3.036;2022-10-31T08:33:09;18.30;74.20
75719;DHT22;64340;48.534;-3.036;2022-10-31T08:35:35;18.30;74.30
75719;DHT22;64340;48.534;-3.036;2022-10-31T08:38:01;18.30;74.30
75719;DHT22;64340;48.534;-3.036;2022-10-31T08:40:29;18.40;74.40
75719;DHT22;64340;48.534;-3.036;2022-10-31T08:43:00;18.40;74.50
75719;DHT22;64340;48.534;-3.036;2022-10-31T08:45:26;18.40;75.00
75719;DHT22;64340;48.534;-3.036;2022-10-31T08:47:56;18.40;75.60
75719;DHT22;64340;48.534;-3.036;2022-10-31T08:50:23;18.40;75.40
75719;DHT22;64340;48.534;-3.036;2022-10-31T08:52:48;18.40;75.40
75719;DHT22;64340;48.534;-3.036;2022-10-31T08:55:15;18.40;75.30
75719;DHT22;64340;48.534;-3.036;2022-10-31T08:57:42;18.40;75.50
75719;DHT22;64340;48.534;-3.036;2022-10-31T09:00:08;18.50;75.80
75719;DHT22;64340;48.534;-3.036;2022-10-31T09:02:35;18.50;75.90
75719;DHT22;64340;48.534;-3.036;2022-10-31T09:05:02;18.50;75.90
75719;DHT22;64340;48.534;-3.036;2022-10-31T09:07:28;18.50;75.50
75719;DHT22;64340;48.534;-3.036;2022-10-31T09:09:54;18.50;75.70
75719;DHT22;64340;48.534;-3.036;2022-10-31T09:12:21;18.50;75.70
75719;DHT22;64340;48.534;-3.036;2022-10-31T09:14:49;18.50;75.20
75719;DHT22;64340;48.534;-3.036;2022-10-31T09:17:16;18.50;75.10
75719;DHT22;64340;48.534;-3.036;2022-10-31T09:19:42;18.50;75.10
75719;DHT22;64340;48.534;-3.036;2022-10-31T09:22:11;18.50;75.20
75719;DHT22;64340;48.534;-3.036;2022-10-31T09:24:37;18.50;75.00
75719;DHT22;64340;48.534;-3.036;2022-10-31T09:27:06;18.50;75.00
75719;DHT22;64340;48.534;-3.036;2022-10-31T09:29:35;18.50;75.00
75719;DHT22;64340;48.534;-3.036;2022-10-31T09:32:05;18.50;75.00
75719;DHT22;64340;48.534;-3.036;2022-10-31T09:34:34;18.50;74.90
75719;DHT22;64340;48.534;-3.036;2022-10-31T09:37:00;18.50;74.90
75719;DHT22;64340;48.534;-3.036;2022-10-31T09:39:26;18.50;74.90
75719;DHT22;64340;48.534;-3.036;2022-10-31T09:47:27;18.50;74.80
75719;DHT22;64340;48.534;-3.036;2022-10-31T09:50:02;18.50;74.50
75719;DHT22;64340;48.534;-3.036;2022-10-31T09:52:38;18.50;74.50
75719;DHT22;64340;48.534;-3.036;2022-10-31T09:55:18;18.50;74.40
75719;DHT22;64340;48.534;-3.036;2022-10-31T09:57:47;18.50;74.50
75719;DHT22;64340;48.534;-3.036;2022-10-31T10:00:19;18.50;74.30
75719;DHT22;64340;48.534;-3.036;2022-10-31T10:02:57;18.50;74.40
75719;DHT22;64340;48.534;-3.036;2022-10-31T10:05:34;18.50;74.40
75719;DHT22;64340;48.534;-3.036;2022-10-31T10:13:28;18.50;74.40
75719;DHT22;64340;48.534;-3.036;2022-10-31T10:20:01;18.50;74.30
75719;DHT22;64340;48.534;-3.036;2022-10-31T10:30:21;18.40;73.90
75719;DHT22;64340;48.534;-3.036;2022-10-31T10:32:53;18.50;73.50
75719;DHT22;64340;48.534;-3.036;2022-10-31T10:35:36;18.50;74.20
75719;DHT22;64340;48.534;-3.036;2022-10-31T10:40:54;18.50;72.90
75719;DHT22;64340;48.534;-3.036;2022-10-31T10:43:36;18.50;73.20
75719;DHT22;64340;48.534;-3.036;2022-10-31T10:46:18;18.50;73.10
75719;DHT22;64340;48.534;-3.036;2022-10-31T10:49:17;18.50;73.20
75719;DHT22;64340;48.534;-3.036;2022-10-31T10:51:57;18.50;73.40
75719;DHT22;64340;48.534;-3.036;2022-10-31T10:54:41;18.60;73.50
75719;DHT22;64340;48.534;-3.036;2022-10-31T10:59:34;18.60;72.90
75719;DHT22;64340;48.534;-3.036;2022-10-31T11:02:03;18.60;72.90
75719;DHT22;64340;48.534;-3.036;2022-10-31T11:04:32;18.60;72.50
75719;DHT22;64340;48.534;-3.036;2022-10-31T11:07:04;18.60;72.30
75719;DHT22;64340;48.534;-3.036;2022-10-31T11:09:30;18.60;72.30
75719;DHT22;64340;48.534;-3.036;2022-10-31T11:11:58;18.60;72.10
75719;DHT22;64340;48.534;-3.036;2022-10-31T11:14:24;18.60;72.10
75719;DHT22;64340;48.534;-3.036;2022-10-31T11:16:56;18.60;72.20
75719;DHT22;64340;48.534;-3.036;2022-10-31T11:19:33;18.60;72.20
75719;DHT22;64340;48.534;-3.036;2022-10-31T11:22:12;18.60;71.90
75719;DHT22;64340;48.534;-3.036;2022-10-31T11:24:40;18.60;71.90
75719;DHT22;64340;48.534;-3.036;2022-10-31T11:27:25;18.60;71.90
75719;DHT22;64340;48.534;-3.036;2022-10-31T11:29:51;18.60;71.90
75719;DHT22;64340;48.534;-3.036;2022-10-31T11:32:22;18.60;71.80
75719;DHT22;64340;48.534;-3.036;2022-10-31T11:35:00;18.60;71.80
75719;DHT22;64340;48.534;-3.036;2022-10-31T11:37:34;18.70;71.70
75719;DHT22;64340;48.534;-3.036;2022-10-31T11:40:06;18.70;71.80
75719;DHT22;64340;48.534;-3.036;2022-10-31T11:42:39;18.70;71.80
75719;DHT22;64340;48.534;-3.036;2022-10-31T11:47:51;18.70;71.70
75719;DHT22;64340;48.534;-3.036;2022-10-31T11:50:22;18.70;71.70
75719;DHT22;64340;48.534;-3.036;2022-10-31T11:52:49;18.70;71.70
75719;DHT22;64340;48.534;-3.036;2022-10-31T11:55:29;18.60;71.70
75719;DHT22;64340;48.534;-3.036;2022-10-31T11:57:56;18.60;71.80
75719;DHT22;64340;48.534;-3.036;2022-10-31T12:00:26;18.70;71.80
75719;DHT22;64340;48.534;-3.036;2022-10-31T12:06:03;18.60;71.90
75719;DHT22;64340;48.534;-3.036;2022-10-31T12:08:35;18.60;72.00
75719;DHT22;64340;48.534;-3.036;2022-10-31T12:19:35;18.60;72.20
75719;DHT22;64340;48.534;-3.036;2022-10-31T12:24:57;18.60;72.20
75719;DHT22;64340;48.534;-3.036;2022-10-31T12:27:35;18.60;72.20
75719;DHT22;64340;48.534;-3.036;2022-10-31T12:45:59;18.60;72.90
75719;DHT22;64340;48.534;-3.036;2022-10-31T12:54:11;18.70;72.90
75719;DHT22;64340;48.534;-3.036;2022-10-31T12:59:48;18.70;72.90
75719;DHT22;64340;48.534;-3.036;2022-10-31T13:05:03;18.70;72.80
75719;DHT22;64340;48.534;-3.036;2022-10-31T13:08:05;18.70;72.80
75719;DHT22;64340;48.534;-3.036;2022-10-31T13:10:48;18.80;72.80
75719;DHT22;64340;48.534;-3.036;2022-10-31T13:13:35;18.80;72.70
75719;DHT22;64340;48.534;-3.036;2022-10-31T13:16:28;18.80;72.70
75719;DHT22;64340;48.534;-3.036;2022-10-31T13:19:14;18.80;72.70
75719;DHT22;64340;48.534;-3.036;2022-10-31T13:24:18;18.80;72.70
75719;DHT22;64340;48.534;-3.036;2022-10-31T13:26:50;18.80;72.70
75719;DHT22;64340;48.534;-3.036;2022-10-31T13:29:30;18.80;72.80
75719;DHT22;64340;48.534;-3.036;2022-10-31T13:32:00;18.90;72.80
75719;DHT22;64340;48.534;-3.036;2022-10-31T13:34:36;18.80;72.80
75719;DHT22;64340;48.534;-3.036;2022-10-31T13:37:36;18.80;72.80
75719;DHT22;64340;48.534;-3.036;2022-10-31T13:40:13;18.80;72.80
75719;DHT22;64340;48.534;-3.036;2022-10-31T13:45:18;18.70;72.90
75719;DHT22;64340;48.534;-3.036;2022-10-31T13:50:39;18.70;72.90
75719;DHT22;64340;48.534;-3.036;2022-10-31T13:55:49;18.70;72.90
75719;DHT22;64340;48.534;-3.036;2022-10-31T13:58:29;18.70;72.90
75719;DHT22;64340;48.534;-3.036;2022-10-31T14:01:21;18.70;72.90
75719;DHT22;64340;48.534;-3.036;2022-10-31T14:04:00;18.70;72.90
75719;DHT22;64340;48.534;-3.036;2022-10-31T14:06:56;18.70;72.90
75719;DHT22;64340;48.534;-3.036;2022-10-31T14:11:51;18.60;72.90
75719;DHT22;64340;48.534;-3.036;2022-10-31T14:14:19;18.60;73.00
75719;DHT22;64340;48.534;-3.036;2022-10-31T14:16:53;18.60;73.00
75719;DHT22;64340;48.534;-3.036;2022-10-31T14:19:26;18.60;72.90
75719;DHT22;64340;48.534;-3.036;2022-10-31T14:21:52;18.60;73.00
75719;DHT22;64340;48.534;-3.036;2022-10-31T14:27:30;18.60;73.10
75719;DHT22;64340;48.534;-3.036;2022-10-31T14:29:49;18.60;73.20
75719;DHT22;64340;48.534;-3.036;2022-10-31T14:32:22;18.60;73.30
75719;DHT22;64340;48.534;-3.036;2022-10-31T14:34:57;18.60;73.30
75719;DHT22;64340;48.534;-3.036;2022-10-31T14:49:03;18.60;73.60
75719;DHT22;64340;48.534;-3.036;2022-10-31T14:51:44;18.60;73.60
75719;DHT22;64340;48.534;-3.036;2022-10-31T14:54:15;18.60;73.60
75719;DHT22;64340;48.534;-3.036;2022-10-31T14:56:49;18.50;73.60
75719;DHT22;64340;48.534;-3.036;2022-10-31T14:59:21;18.50;73.60
75719;DHT22;64340;48.534;-3.036;2022-10-31T15:02:01;18.50;73.60
75719;DHT22;64340;48.534;-3.036;2022-10-31T15:04:34;18.50;73.70
75719;DHT22;64340;48.534;-3.036;2022-10-31T15:07:20;18.50;73.80
75719;DHT22;64340;48.534;-3.036;2022-10-31T15:09:55;18.50;73.90
75719;DHT22;64340;48.534;-3.036;2022-10-31T15:12:32;18.50;74.00
75719;DHT22;64340;48.534;-3.036;2022-10-31T15:15:14;18.50;74.20
75719;DHT22;64340;48.534;-3.036;2022-10-31T15:17:45;18.50;74.40
75719;DHT22;64340;48.534;-3.036;2022-10-31T15:20:19;18.50;74.40
75719;DHT22;64340;48.534;-3.036;2022-10-31T15:22:46;18.50;74.60
75719;DHT22;64340;48.534;-3.036;2022-10-31T15:25:18;18.50;74.50
75719;DHT22;64340;48.534;-3.036;2022-10-31T15:27:46;18.50;74.60
75719;DHT22;64340;48.534;-3.036;2022-10-31T15:30:30;18.50;74.80
75719;DHT22;64340;48.534;-3.036;2022-10-31T15:32:57;18.50;74.70
75719;DHT22;64340;48.534;-3.036;2022-10-31T15:35:28;18.50;74.80
75719;DHT22;64340;48.534;-3.036;2022-10-31T15:37:56;18.50;74.90
75719;DHT22;64340;48.534;-3.036;2022-10-31T15:40:26;18.50;74.90
75719;DHT22;64340;48.534;-3.036;2022-10-31T15:43:01;18.50;75.00
75719;DHT22;64340;48.534;-3.036;2022-10-31T15:45:29;18.50;75.00
75719;DHT22;64340;48.534;-3.036;2022-10-31T15:48:01;18.50;75.10
75719;DHT22;64340;48.534;-3.036;2022-10-31T15:50:39;18.50;75.20
75719;DHT22;64340;48.534;-3.036;2022-10-31T15:53:53;18.50;75.20
75719;DHT22;64340;48.534;-3.036;2022-10-31T15:56:07;18.50;75.20
75719;DHT22;64340;48.534;-3.036;2022-10-31T15:58:48;18.50;75.30
75719;DHT22;64340;48.534;-3.036;2022-10-31T16:04:22;18.50;75.50
75719;DHT22;64340;48.534;-3.036;2022-10-31T16:07:13;18.50;75.60
75719;DHT22;64340;48.534;-3.036;2022-10-31T16:09:58;18.50;75.60
75719;DHT22;64340;48.534;-3.036;2022-10-31T16:12:41;18.50;75.70
75719;DHT22;64340;48.534;-3.036;2022-10-31T16:15:14;18.50;75.70
75719;DHT22;64340;48.534;-3.036;2022-10-31T16:17:46;18.50;75.70
75719;DHT22;64340;48.534;-3.036;2022-10-31T16:20:22;18.50;75.90
75719;DHT22;64340;48.534;-3.036;2022-10-31T16:22:50;18.50;75.90
75719;DHT22;64340;48.534;-3.036;2022-10-31T16:27:51;18.50;76.10
75719;DHT22;64340;48.534;-3.036;2022-10-31T16:30:37;18.50;76.20
75719;DHT22;64340;48.534;-3.036;2022-10-31T16:33:05;18.50;76.00
75719;DHT22;64340;48.534;-3.036;2022-10-31T16:35:47;18.50;76.30
75719;DHT22;64340;48.534;-3.036;2022-10-31T16:38:13;18.50;76.50
75719;DHT22;64340;48.534;-3.036;2022-10-31T16:40:39;18.50;76.70
75719;DHT22;64340;48.534;-3.036;2022-10-31T16:43:10;18.50;76.40
75719;DHT22;64340;48.534;-3.036;2022-10-31T16:45:37;18.50;76.30
75719;DHT22;64340;48.534;-3.036;2022-10-31T16:48:12;18.50;76.40
75719;DHT22;64340;48.534;-3.036;2022-10-31T16:50:41;18.50;76.40
75719;DHT22;64340;48.534;-3.036;2022-10-31T16:53:07;18.50;76.60
75719;DHT22;64340;48.534;-3.036;2022-10-31T16:55:33;18.40;76.40
75719;DHT22;64340;48.534;-3.036;2022-10-31T16:58:01;18.40;76.30
75719;DHT22;64340;48.534;-3.036;2022-10-31T17:00:27;18.40;76.50
75719;DHT22;64340;48.534;-3.036;2022-10-31T17:02:55;18.40;76.40
75719;DHT22;64340;48.534;-3.036;2022-10-31T17:05:23;18.40;76.40
75719;DHT22;64340;48.534;-3.036;2022-10-31T17:07:56;18.40;76.10
75719;DHT22;64340;48.534;-3.036;2022-10-31T17:10:22;18.40;76.10
75719;DHT22;64340;48.534;-3.036;2022-10-31T17:12:49;18.40;76.00
75719;DHT22;64340;48.534;-3.036;2022-10-31T17:15:25;18.40;76.00
75719;DHT22;64340;48.534;-3.036;2022-10-31T17:17:51;18.40;76.00
75719;DHT22;64340;48.534;-3.036;2022-10-31T17:20:23;18.40;75.90
75719;DHT22;64340;48.534;-3.036;2022-10-31T17:22:49;18.40;76.00
75719;DHT22;64340;48.534;-3.036;2022-10-31T17:25:20;18.40;76.00
75719;DHT22;64340;48.534;-3.036;2022-10-31T17:27:48;18.40;75.90
75719;DHT22;64340;48.534;-3.036;2022-10-31T17:30:14;18.40;76.00
75719;DHT22;64340;48.534;-3.036;2022-10-31T17:32:41;18.40;76.00
75719;DHT22;64340;48.534;-3.036;2022-10-31T17:35:08;18.40;76.00
75719;DHT22;64340;48.534;-3.036;2022-10-31T17:37:34;18.40;76.00
75719;DHT22;64340;48.534;-3.036;2022-10-31T17:40:01;18.40;75.90
75719;DHT22;64340;48.534;-3.036;2022-10-31T17:42:26;18.40;76.00
75719;DHT22;64340;48.534;-3.036;2022-10-31T17:44:52;18.40;76.00